createdAt,value
2022-11-24T00:00:26.826Z,4.36
2022-11-24T00:01:30.911Z,4.36
2022-11-24T00:02:35.356Z,4.35
2022-11-24T00:03:39.451Z,4.33
2022-11-24T00:04:43.491Z,4.33
2022-11-24T00:05:47.716Z,4.33
2022-11-24T00:06:51.831Z,4.33
2022-11-24T00:07:56.031Z,4.33
2022-11-24T00:09:00.176Z,4.31
2022-11-24T00:10:04.364Z,4.30
2022-11-24T00:11:08.506Z,4.30
2022-11-24T00:12:12.669Z,4.30
2022-11-24T00:13:16.896Z,4.31
2022-11-24T00:14:21.105Z,4.31
2022-11-24T00:15:25.225Z,4.32
2022-11-24T00:16:29.434Z,4.33
2022-11-24T00:17:33.545Z,4.34
2022-11-24T00:18:37.721Z,4.35
2022-11-24T00:19:41.882Z,4.37
2022-11-24T00:20:46.006Z,4.37
2022-11-24T00:21:50.169Z,4.37
2022-11-24T00:22:54.296Z,4.38
2022-11-24T00:23:58.491Z,4.38
2022-11-24T00:25:02.629Z,4.38
2022-11-24T00:26:06.786Z,4.38
2022-11-24T00:27:10.968Z,4.38
2022-11-24T00:28:15.238Z,4.40
2022-11-24T00:29:19.331Z,4.41
2022-11-24T00:30:23.640Z,4.42
2022-11-24T00:31:27.859Z,4.41
2022-11-24T00:32:31.814Z,4.42
2022-11-24T00:33:36.067Z,4.43
2022-11-24T00:34:40.218Z,4.44
2022-11-24T00:35:44.523Z,4.46
2022-11-24T00:36:48.608Z,4.45
2022-11-24T00:37:52.807Z,4.45
2022-11-24T00:38:56.945Z,4.46
2022-11-24T00:40:01.137Z,4.47
2022-11-24T00:41:05.390Z,4.49
2022-11-24T00:42:09.604Z,4.50
2022-11-24T00:43:13.722Z,4.51
2022-11-24T00:44:17.989Z,4.52
2022-11-24T00:45:22.093Z,4.54
2022-11-24T00:46:26.408Z,4.55
2022-11-24T00:47:30.412Z,4.55
2022-11-24T00:48:34.568Z,4.56
2022-11-24T00:49:38.752Z,4.57
2022-11-24T00:50:43.066Z,4.58
2022-11-24T00:51:47.207Z,4.58
2022-11-24T00:52:51.360Z,4.59
2022-11-24T00:53:55.512Z,4.59
2022-11-24T00:54:59.660Z,4.60
2022-11-24T00:56:03.921Z,4.61
2022-11-24T00:57:07.986Z,4.63
2022-11-24T00:58:12.244Z,4.65
2022-11-24T00:59:16.381Z,4.67
2022-11-24T01:00:20.455Z,4.68
2022-11-24T01:01:24.739Z,4.69
2022-11-24T01:02:28.811Z,4.69
2022-11-24T01:03:33.084Z,4.69
2022-11-24T01:04:37.295Z,4.69
2022-11-24T01:05:41.416Z,4.68
2022-11-24T01:06:45.556Z,4.68
2022-11-24T01:07:49.861Z,4.69
2022-11-24T01:08:53.783Z,4.71
2022-11-24T01:09:58.112Z,4.71
2022-11-24T01:11:02.275Z,4.73
2022-11-24T01:12:06.475Z,4.74
2022-11-24T01:13:10.725Z,4.75
2022-11-24T01:14:14.878Z,4.75
2022-11-24T01:15:19.040Z,4.75
2022-11-24T01:16:23.450Z,4.76
2022-11-24T01:17:27.431Z,4.77
2022-11-24T01:18:31.589Z,4.79
2022-11-24T01:19:35.867Z,4.79
2022-11-24T01:20:40.045Z,4.79
2022-11-24T01:21:44.144Z,4.79
2022-11-24T01:22:48.300Z,4.80
2022-11-24T01:23:52.480Z,4.81
2022-11-24T01:24:56.717Z,4.82
2022-11-24T01:26:00.951Z,4.81
2022-11-24T01:27:05.066Z,4.81
2022-11-24T01:28:09.337Z,4.78
2022-11-24T01:29:13.535Z,4.77
2022-11-24T01:30:17.784Z,4.78
2022-11-24T01:31:21.938Z,4.78
2022-11-24T01:32:26.058Z,4.78
2022-11-24T01:33:30.229Z,4.78
2022-11-24T01:34:34.615Z,4.78
2022-11-24T01:35:38.655Z,4.78
2022-11-24T01:36:42.708Z,4.80
2022-11-24T01:37:47.010Z,4.81
2022-11-24T01:38:51.100Z,4.82
2022-11-24T01:39:55.315Z,4.83
2022-11-24T01:40:59.577Z,4.86
2022-11-24T01:42:03.672Z,4.88
2022-11-24T01:43:07.893Z,4.90
2022-11-24T01:44:12.034Z,4.90
2022-11-24T01:45:17.232Z,4.89
2022-11-24T01:46:21.158Z,4.89
2022-11-24T01:47:25.259Z,4.88
2022-11-24T01:48:29.391Z,4.88
2022-11-24T01:49:33.644Z,4.87
2022-11-24T01:50:37.749Z,4.86
2022-11-24T01:51:41.907Z,4.85
2022-11-24T01:52:46.195Z,4.84
2022-11-24T01:53:50.416Z,4.84
2022-11-24T01:54:54.632Z,4.86
2022-11-24T01:55:58.676Z,4.86
2022-11-24T01:57:02.948Z,4.88
2022-11-24T01:58:07.172Z,4.89
2022-11-24T01:59:11.286Z,4.91
2022-11-24T02:00:15.565Z,4.93
2022-11-24T02:01:19.772Z,4.96
2022-11-24T02:02:23.871Z,4.97
2022-11-24T02:03:28.049Z,4.96
2022-11-24T02:04:32.766Z,4.96
2022-11-24T02:05:36.469Z,4.97
2022-11-24T02:06:40.575Z,4.96
2022-11-24T02:07:44.904Z,4.96
2022-11-24T02:08:49.007Z,4.95
2022-11-24T02:09:53.099Z,4.94
2022-11-24T02:10:57.258Z,4.95
2022-11-24T02:12:01.546Z,4.96
2022-11-24T02:13:05.740Z,4.98
2022-11-24T02:14:09.930Z,4.99
2022-11-24T02:15:14.113Z,4.98
2022-11-24T02:16:18.370Z,4.99
2022-11-24T02:17:22.430Z,5.01
2022-11-24T02:18:26.659Z,5.02
2022-11-24T02:19:30.878Z,5.03
2022-11-24T02:20:35.114Z,5.04
2022-11-24T02:21:39.283Z,5.04
2022-11-24T02:22:43.457Z,5.05
2022-11-24T02:23:47.639Z,5.07
2022-11-24T02:24:51.801Z,5.08
2022-11-24T02:25:55.943Z,5.08
2022-11-24T02:27:00.121Z,5.06
2022-11-24T02:28:04.257Z,5.05
2022-11-24T02:29:08.544Z,5.05
2022-11-24T02:30:12.760Z,5.06
2022-11-24T02:31:16.912Z,5.07
2022-11-24T02:32:21.107Z,5.09
2022-11-24T02:33:25.285Z,5.09
2022-11-24T02:34:29.530Z,5.10
2022-11-24T02:35:33.621Z,5.09
2022-11-24T02:36:37.910Z,5.08
2022-11-24T02:37:42.066Z,5.05
2022-11-24T02:38:46.317Z,5.04
2022-11-24T02:39:50.442Z,5.03
2022-11-24T02:40:54.581Z,5.04
2022-11-24T02:41:58.707Z,5.02
2022-11-24T02:43:02.828Z,5.02
2022-11-24T02:44:07.003Z,5.03
2022-11-24T02:45:11.160Z,5.04
2022-11-24T02:46:15.347Z,5.05
2022-11-24T02:47:19.498Z,5.07
2022-11-24T02:48:23.624Z,5.08
2022-11-24T02:49:27.870Z,5.08
2022-11-24T02:50:32.015Z,5.07
2022-11-24T02:51:36.164Z,5.03
2022-11-24T02:52:40.283Z,5.00
2022-11-24T02:53:44.347Z,4.99
2022-11-24T02:54:48.644Z,4.99
2022-11-24T02:55:52.669Z,4.99
2022-11-24T02:56:56.932Z,4.99
2022-11-24T02:58:01.083Z,5.00
2022-11-24T02:59:05.090Z,5.01
2022-11-24T03:00:09.325Z,5.02
2022-11-24T03:01:13.549Z,5.03
2022-11-24T03:02:17.682Z,5.03
2022-11-24T03:03:21.866Z,5.02
2022-11-24T03:04:25.980Z,5.03
2022-11-24T03:05:30.131Z,5.03
2022-11-24T03:06:34.302Z,5.03
2022-11-24T03:07:38.489Z,5.02
2022-11-24T03:08:42.635Z,5.03
2022-11-24T03:09:46.871Z,5.03
2022-11-24T03:10:51.081Z,4.99
2022-11-24T03:11:55.151Z,4.95
2022-11-24T03:12:59.312Z,4.90
2022-11-24T03:14:03.495Z,4.89
2022-11-24T03:15:07.640Z,4.89
2022-11-24T03:16:11.907Z,4.91
2022-11-24T03:17:16.031Z,4.92
2022-11-24T03:18:20.196Z,4.91
2022-11-24T03:19:24.450Z,4.91
2022-11-24T03:20:28.554Z,4.92
2022-11-24T03:21:32.726Z,4.93
2022-11-24T03:22:37.004Z,4.95
2022-11-24T03:23:41.112Z,4.96
2022-11-24T03:24:48.289Z,4.97
2022-11-24T03:25:51.556Z,4.99
2022-11-24T03:26:55.658Z,4.99
2022-11-24T03:27:59.839Z,5.00
2022-11-24T03:29:04.004Z,5.00
2022-11-24T03:30:08.177Z,5.00
2022-11-24T03:31:12.516Z,5.01
2022-11-24T03:32:16.561Z,5.01
2022-11-24T03:33:20.774Z,5.02
2022-11-24T03:34:24.959Z,5.02
2022-11-24T03:35:29.132Z,5.03
2022-11-24T03:36:33.258Z,5.03
2022-11-24T03:37:37.531Z,5.04
2022-11-24T03:38:41.619Z,5.02
2022-11-24T03:39:45.875Z,5.00
2022-11-24T03:40:50.035Z,4.98
2022-11-24T03:41:54.281Z,4.98
2022-11-24T03:42:58.390Z,4.97
2022-11-24T03:44:02.571Z,4.96
2022-11-24T03:46:10.980Z,4.92
2022-11-24T03:47:15.160Z,4.92
2022-11-24T03:48:19.440Z,4.91
2022-11-24T03:49:23.531Z,4.89
2022-11-24T03:50:27.745Z,4.88
2022-11-24T03:51:32.013Z,4.88
2022-11-24T03:52:36.129Z,4.89
2022-11-24T03:53:40.354Z,4.86
2022-11-24T03:54:44.527Z,4.87
2022-11-24T03:55:48.686Z,4.86
2022-11-24T03:56:52.860Z,4.84
2022-11-24T03:57:57.106Z,4.82
2022-11-24T03:59:01.266Z,4.82
2022-11-24T04:00:05.539Z,4.83
2022-11-24T04:01:09.661Z,4.84
2022-11-24T04:02:13.860Z,4.85
2022-11-24T04:03:18.001Z,4.84
2022-11-24T04:04:22.189Z,4.84
2022-11-24T04:05:26.348Z,4.85
2022-11-24T04:06:30.630Z,4.86
2022-11-24T04:07:34.832Z,4.88
2022-11-24T04:08:38.999Z,4.89
2022-11-24T04:09:43.240Z,4.91
2022-11-24T04:10:47.440Z,4.92
2022-11-24T04:11:51.661Z,4.93
2022-11-24T04:12:55.821Z,4.94
2022-11-24T04:14:02.970Z,4.95
2022-11-24T04:15:06.160Z,4.96
2022-11-24T04:16:10.422Z,4.96
2022-11-24T04:17:14.379Z,4.96
2022-11-24T04:18:18.609Z,4.96
2022-11-24T04:19:22.787Z,4.96
2022-11-24T04:20:26.954Z,4.96
2022-11-24T04:21:30.976Z,4.96
2022-11-24T04:22:35.218Z,4.94
2022-11-24T04:23:39.477Z,4.94
2022-11-24T04:24:43.507Z,4.94
2022-11-24T04:25:47.721Z,4.94
2022-11-24T04:26:51.839Z,4.94
2022-11-24T04:27:56.001Z,4.95
2022-11-24T04:29:00.174Z,4.95
2022-11-24T04:30:04.325Z,4.96
2022-11-24T04:31:08.566Z,4.97
2022-11-24T04:32:12.719Z,4.97
2022-11-24T04:33:16.845Z,4.93
2022-11-24T04:34:21.149Z,4.88
2022-11-24T04:35:25.355Z,4.83
2022-11-24T04:36:29.509Z,4.82
2022-11-24T04:37:33.684Z,4.82
2022-11-24T04:39:25.775Z,4.83
2022-11-24T04:39:42.006Z,4.84
2022-11-24T04:40:46.142Z,4.83
2022-11-24T04:41:50.386Z,4.81
2022-11-24T04:42:54.504Z,4.80
2022-11-24T04:43:58.761Z,4.78
2022-11-24T04:45:02.990Z,4.77
2022-11-24T04:46:07.258Z,4.78
2022-11-24T04:47:11.306Z,4.78
2022-11-24T04:48:15.506Z,4.78
2022-11-24T04:49:19.658Z,4.78
2022-11-24T04:50:23.778Z,4.76
2022-11-24T04:51:27.933Z,4.76
2022-11-24T04:52:32.091Z,4.75
2022-11-24T04:53:36.260Z,4.75
2022-11-24T04:54:40.405Z,4.77
2022-11-24T04:55:44.673Z,4.77
2022-11-24T04:56:48.781Z,4.78
2022-11-24T04:57:53.063Z,4.77
2022-11-24T04:58:57.171Z,4.75
2022-11-24T05:00:01.353Z,4.76
2022-11-24T05:01:05.556Z,4.74
2022-11-24T05:02:10.034Z,4.74
2022-11-24T05:03:14.016Z,4.74
2022-11-24T05:04:18.214Z,4.75
2022-11-24T05:05:22.334Z,4.73
2022-11-24T05:06:26.542Z,4.72
2022-11-24T05:07:30.863Z,4.72
2022-11-24T05:08:34.995Z,4.73
2022-11-24T05:09:58.401Z,4.73
2022-11-24T05:10:43.338Z,4.72
2022-11-24T05:11:47.437Z,4.68
2022-11-24T05:12:51.633Z,4.65
2022-11-24T05:13:55.722Z,4.63
2022-11-24T05:14:59.891Z,4.62
2022-11-24T05:16:04.130Z,4.61
2022-11-24T05:17:08.302Z,4.63
2022-11-24T05:18:12.398Z,4.63
2022-11-24T05:19:16.749Z,4.64
2022-11-24T05:20:20.806Z,4.65
2022-11-24T05:21:24.989Z,4.67
2022-11-24T05:22:29.159Z,4.69
2022-11-24T05:23:33.401Z,4.70
2022-11-24T05:24:37.672Z,4.71
2022-11-24T05:25:47.295Z,4.72
2022-11-24T05:26:46.033Z,4.73
2022-11-24T05:27:50.254Z,4.72
2022-11-24T05:28:54.351Z,4.72
2022-11-24T05:29:58.631Z,4.73
2022-11-24T05:31:02.830Z,4.72
2022-11-24T05:32:06.942Z,4.72
2022-11-24T05:33:11.199Z,4.72
2022-11-24T05:34:15.443Z,4.72
2022-11-24T05:35:19.677Z,4.73
2022-11-24T05:36:23.871Z,4.74
2022-11-24T05:37:27.993Z,4.75
2022-11-24T05:38:32.150Z,4.74
2022-11-24T05:39:36.383Z,4.75
2022-11-24T05:40:40.569Z,4.75
2022-11-24T05:41:44.701Z,4.75
2022-11-24T05:42:49.001Z,4.76
2022-11-24T05:43:53.109Z,4.77
2022-11-24T05:44:57.249Z,4.78
2022-11-24T05:46:01.423Z,4.78
2022-11-24T05:47:05.678Z,4.78
2022-11-24T05:48:09.860Z,4.76
2022-11-24T05:49:13.974Z,4.72
2022-11-24T05:50:18.134Z,4.70
2022-11-24T05:51:22.402Z,4.68
2022-11-24T05:52:26.615Z,4.68
2022-11-24T05:53:33.732Z,4.67
2022-11-24T05:54:37.026Z,4.67
2022-11-24T05:55:41.135Z,4.67
2022-11-24T05:56:45.342Z,4.66
2022-11-24T05:57:49.458Z,4.65
2022-11-24T05:58:53.619Z,4.63
2022-11-24T05:59:57.843Z,4.62
2022-11-24T06:01:02.080Z,4.60
2022-11-24T06:02:06.392Z,4.59
2022-11-24T06:03:10.667Z,4.57
2022-11-24T06:04:14.698Z,4.56
2022-11-24T06:05:18.816Z,4.56
2022-11-24T06:06:22.958Z,4.54
2022-11-24T06:07:27.152Z,4.55
2022-11-24T06:08:31.560Z,4.57
2022-11-24T06:09:35.444Z,4.57
2022-11-24T06:10:39.635Z,4.58
2022-11-24T06:11:43.782Z,4.58
2022-11-24T06:12:47.992Z,4.56
2022-11-24T06:13:52.239Z,4.54
2022-11-24T06:14:56.342Z,4.54
2022-11-24T06:16:00.587Z,4.51
2022-11-24T06:17:04.668Z,4.51
2022-11-24T06:18:08.858Z,4.52
2022-11-24T06:19:13.064Z,4.51
2022-11-24T06:20:17.302Z,4.52
2022-11-24T06:21:21.390Z,4.54
2022-11-24T06:22:25.562Z,4.56
2022-11-24T06:23:29.724Z,4.58
2022-11-24T06:24:34.362Z,4.60
2022-11-24T06:25:38.136Z,4.62
2022-11-24T06:26:42.271Z,4.65
2022-11-24T06:27:46.513Z,4.67
2022-11-24T06:28:50.658Z,4.69
2022-11-24T06:29:54.934Z,4.71
2022-11-24T06:30:58.964Z,4.71
2022-11-24T06:32:03.387Z,4.73
2022-11-24T06:33:07.338Z,4.75
2022-11-24T06:34:11.544Z,4.77
2022-11-24T06:35:15.710Z,4.79
2022-11-24T06:36:19.869Z,4.80
2022-11-24T06:37:24.026Z,4.82
2022-11-24T06:38:28.216Z,4.82
2022-11-24T06:39:32.513Z,4.82
2022-11-24T06:40:36.676Z,4.83
2022-11-24T06:41:40.791Z,4.83
2022-11-24T06:42:45.087Z,4.84
2022-11-24T06:43:49.184Z,4.85
2022-11-24T06:44:53.485Z,4.85
2022-11-24T06:45:57.615Z,4.86
2022-11-24T06:47:01.720Z,4.86
2022-11-24T06:48:05.985Z,4.84
2022-11-24T06:49:10.094Z,4.84
2022-11-24T06:50:14.362Z,4.84
2022-11-24T06:51:18.534Z,4.81
2022-11-24T06:52:22.681Z,4.80
2022-11-24T06:53:26.850Z,4.80
2022-11-24T06:54:31.033Z,4.81
2022-11-24T06:55:35.210Z,4.82
2022-11-24T06:56:39.404Z,4.83
2022-11-24T06:57:43.587Z,4.83
2022-11-24T06:58:47.684Z,4.83
2022-11-24T06:59:51.933Z,4.84
2022-11-24T07:00:56.423Z,4.82
2022-11-24T07:02:03.296Z,4.78
2022-11-24T07:03:06.603Z,4.76
2022-11-24T07:04:10.705Z,4.74
2022-11-24T07:05:14.839Z,4.74
2022-11-24T07:06:18.948Z,4.73
2022-11-24T07:07:23.254Z,4.72
2022-11-24T07:08:27.284Z,4.73
2022-11-24T07:09:31.530Z,4.73
2022-11-24T07:10:35.699Z,4.73
2022-11-24T07:11:39.953Z,4.74
2022-11-24T07:12:44.031Z,4.74
2022-11-24T07:13:48.275Z,4.74
2022-11-24T07:14:52.311Z,4.76
2022-11-24T07:15:56.660Z,4.78
2022-11-24T07:17:00.879Z,4.79
2022-11-24T07:18:04.996Z,4.81
2022-11-24T07:19:09.174Z,4.82
2022-11-24T07:20:13.439Z,4.84
2022-11-24T07:21:17.673Z,4.85
2022-11-24T07:22:21.792Z,4.87
2022-11-24T07:23:26.034Z,4.89
2022-11-24T07:24:30.200Z,4.90
2022-11-24T07:25:34.478Z,4.87
2022-11-24T07:26:38.595Z,4.86
2022-11-24T07:27:42.876Z,4.83
2022-11-24T07:28:47.023Z,4.77
2022-11-24T07:29:51.175Z,4.76
2022-11-24T07:30:55.325Z,4.77
2022-11-24T07:32:04.959Z,4.77
2022-11-24T07:33:03.639Z,4.76
2022-11-24T07:34:07.796Z,4.76
2022-11-24T07:35:12.048Z,4.76
2022-11-24T07:36:16.168Z,4.75
2022-11-24T07:37:20.425Z,4.75
2022-11-24T07:38:24.570Z,4.75
2022-11-24T07:39:28.837Z,4.77
2022-11-24T07:40:32.969Z,4.79
2022-11-24T07:41:37.120Z,4.81
2022-11-24T07:42:41.278Z,4.84
2022-11-24T07:43:45.683Z,4.87
2022-11-24T07:44:49.795Z,4.89
2022-11-24T07:45:53.975Z,4.92
2022-11-24T07:46:58.212Z,4.93
2022-11-24T07:48:02.345Z,4.95
2022-11-24T07:49:06.512Z,4.97
2022-11-24T07:50:10.640Z,4.99
2022-11-24T07:51:14.796Z,5.00
2022-11-24T07:52:18.981Z,5.00
2022-11-24T07:53:23.160Z,5.01
2022-11-24T07:54:27.401Z,5.03
2022-11-24T07:55:31.527Z,5.03
2022-11-24T07:56:35.683Z,5.05
2022-11-24T07:57:39.856Z,5.06
2022-11-24T07:58:48.329Z,5.07
2022-11-24T07:59:48.122Z,5.09
2022-11-24T08:00:52.261Z,5.11
2022-11-24T08:01:56.576Z,5.13
2022-11-24T08:03:00.743Z,5.15
2022-11-24T08:04:04.933Z,5.17
2022-11-24T08:05:09.058Z,5.17
2022-11-24T08:06:25.095Z,5.16
2022-11-24T08:07:17.487Z,5.17
2022-11-24T08:08:21.560Z,5.18
2022-11-24T08:09:25.836Z,5.18
2022-11-24T08:10:29.926Z,5.20
2022-11-24T08:11:34.092Z,5.18
2022-11-24T08:12:38.277Z,5.17
2022-11-24T08:13:42.443Z,5.16
2022-11-24T08:14:46.607Z,5.16
2022-11-24T08:15:50.891Z,5.17
2022-11-24T08:16:55.104Z,5.19
2022-11-24T08:17:59.280Z,5.19
2022-11-24T08:19:03.386Z,5.20
2022-11-24T08:20:07.540Z,5.21
2022-11-24T08:21:11.735Z,5.22
2022-11-24T08:22:19.046Z,5.24
2022-11-24T08:23:22.206Z,5.25
2022-11-24T08:24:26.362Z,5.26
2022-11-24T08:25:30.494Z,5.28
2022-11-24T08:26:34.639Z,5.29
2022-11-24T08:27:38.846Z,5.31
2022-11-24T08:28:43.004Z,5.33
2022-11-24T08:29:47.287Z,5.33
2022-11-24T08:30:51.409Z,5.35
2022-11-24T08:31:55.655Z,5.35
2022-11-24T08:32:59.872Z,5.36
2022-11-24T08:34:03.931Z,5.36
2022-11-24T08:35:13.914Z,5.36
2022-11-24T08:36:12.366Z,5.37
2022-11-24T08:37:16.584Z,5.38
2022-11-24T08:38:20.536Z,5.39
2022-11-24T08:39:24.768Z,5.39
2022-11-24T08:40:28.834Z,5.40
2022-11-24T08:41:33.126Z,5.41
2022-11-24T08:42:37.156Z,5.41
2022-11-24T08:43:41.425Z,5.41
2022-11-24T08:44:45.512Z,5.41
2022-11-24T08:45:49.695Z,5.40
2022-11-24T08:46:53.873Z,5.40
2022-11-24T08:47:58.048Z,5.40
2022-11-24T08:49:02.242Z,5.40
2022-11-24T08:50:06.549Z,5.40
2022-11-24T08:51:10.699Z,5.40
2022-11-24T08:52:14.746Z,5.40
2022-11-24T08:53:19.032Z,5.40
2022-11-24T08:54:23.196Z,5.41
2022-11-24T08:55:27.446Z,5.41
2022-11-24T08:56:31.490Z,5.41
2022-11-24T08:57:35.745Z,5.41
2022-11-24T08:58:39.978Z,5.41
2022-11-24T08:59:44.166Z,5.41
2022-11-24T09:00:48.299Z,5.40
2022-11-24T09:01:52.452Z,5.40
2022-11-24T09:02:56.460Z,5.39
2022-11-24T09:04:00.840Z,5.39
2022-11-24T09:05:07.216Z,5.40
2022-11-24T09:06:08.976Z,5.41
2022-11-24T09:07:13.119Z,5.42
2022-11-24T09:08:17.294Z,5.41
2022-11-24T09:09:21.373Z,5.41
2022-11-24T09:10:25.707Z,5.41
2022-11-24T09:11:29.848Z,5.42
2022-11-24T09:12:34.016Z,5.41
2022-11-24T09:13:38.333Z,5.39
2022-11-24T09:14:42.293Z,5.38
2022-11-24T09:15:46.523Z,5.36
2022-11-24T09:16:50.768Z,5.37
2022-11-24T09:17:54.869Z,5.39
2022-11-24T09:18:59.153Z,5.42
2022-11-24T09:20:03.281Z,5.42
2022-11-24T09:21:07.457Z,5.41
2022-11-24T09:22:11.496Z,5.40
2022-11-24T09:23:15.729Z,5.41
2022-11-24T09:24:19.884Z,5.43
2022-11-24T09:25:24.108Z,5.46
2022-11-24T09:26:28.290Z,5.49
2022-11-24T09:27:32.461Z,5.52
2022-11-24T09:28:36.568Z,5.52
2022-11-24T09:29:40.793Z,5.53
2022-11-24T09:30:44.954Z,5.54
2022-11-24T09:31:48.997Z,5.54
2022-11-24T09:32:53.219Z,5.55
2022-11-24T09:33:58.293Z,5.58
2022-11-24T09:35:01.971Z,5.58
2022-11-24T09:36:06.186Z,5.60
2022-11-24T09:37:10.260Z,5.61
2022-11-24T09:38:14.498Z,5.62
2022-11-24T09:39:18.590Z,5.63
2022-11-24T09:40:22.845Z,5.62
2022-11-24T09:41:26.949Z,5.63
2022-11-24T09:42:31.273Z,5.63
2022-11-24T09:43:35.484Z,5.61
2022-11-24T09:44:39.640Z,5.61
2022-11-24T09:46:04.938Z,5.61
2022-11-24T09:46:48.136Z,5.62
2022-11-24T09:47:52.120Z,5.63
2022-11-24T09:48:56.555Z,5.65
2022-11-24T09:50:00.555Z,5.67
2022-11-24T09:51:04.697Z,5.68
2022-11-24T09:52:08.966Z,5.70
2022-11-24T09:53:13.050Z,5.71
2022-11-24T09:54:17.319Z,5.73
2022-11-24T09:55:21.426Z,5.74
2022-11-24T09:56:25.701Z,5.75
2022-11-24T09:57:35.726Z,5.75
2022-11-24T09:58:33.979Z,5.76
2022-11-24T09:59:38.268Z,5.76
2022-11-24T10:00:42.489Z,5.77
2022-11-24T10:01:46.655Z,5.78
2022-11-24T10:02:50.739Z,5.79
2022-11-24T10:03:54.940Z,5.79
2022-11-24T10:04:59.241Z,5.79
2022-11-24T10:06:03.360Z,5.79
2022-11-24T10:07:07.722Z,5.79
2022-11-24T10:08:11.690Z,5.80
2022-11-24T10:09:15.858Z,5.81
2022-11-24T10:10:24.783Z,5.81
2022-11-24T10:11:24.130Z,5.82
2022-11-24T10:12:28.264Z,5.83
2022-11-24T10:13:32.512Z,5.83
2022-11-24T10:14:36.692Z,5.83
2022-11-24T10:15:40.929Z,5.83
2022-11-24T10:16:45.066Z,5.83
2022-11-24T10:17:49.203Z,5.84
2022-11-24T10:18:53.316Z,5.84
2022-11-24T10:19:57.574Z,5.84
2022-11-24T10:21:01.725Z,5.85
2022-11-24T10:22:05.783Z,5.86
2022-11-24T10:23:09.981Z,5.86
2022-11-24T10:24:14.158Z,5.86
2022-11-24T10:25:18.233Z,5.86
2022-11-24T10:26:22.451Z,5.87
2022-11-24T10:27:26.643Z,5.88
2022-11-24T10:28:30.807Z,5.90
2022-11-24T10:29:35.348Z,5.90
2022-11-24T10:30:39.320Z,5.91
2022-11-24T10:31:43.459Z,5.92
2022-11-24T10:32:47.700Z,5.93
2022-11-24T10:33:51.741Z,5.94
2022-11-24T10:34:55.843Z,5.94
2022-11-24T10:35:59.972Z,5.95
2022-11-24T10:37:04.209Z,5.95
2022-11-24T10:38:08.402Z,5.96
2022-11-24T10:39:12.595Z,5.97
2022-11-24T10:40:40.637Z,5.97
2022-11-24T10:41:20.922Z,5.94
2022-11-24T10:42:25.167Z,5.93
2022-11-24T10:43:29.209Z,5.93
2022-11-24T10:44:33.459Z,5.94
2022-11-24T10:45:37.606Z,5.96
2022-11-24T10:46:41.777Z,5.95
2022-11-24T10:47:45.975Z,5.91
2022-11-24T10:48:50.364Z,5.90
2022-11-24T10:49:54.550Z,5.90
2022-11-24T10:50:58.751Z,5.91
2022-11-24T10:52:02.878Z,5.92
2022-11-24T10:53:07.039Z,5.94
2022-11-24T10:54:12.156Z,5.96
2022-11-24T10:55:15.998Z,5.98
2022-11-24T10:56:20.180Z,5.99
2022-11-24T10:57:24.307Z,6.01
2022-11-24T10:58:32.846Z,6.03
2022-11-24T10:59:33.133Z,6.04
2022-11-24T11:00:36.818Z,6.05
2022-11-24T11:01:41.153Z,6.06
2022-11-24T11:02:45.343Z,6.07
2022-11-24T11:03:49.379Z,6.07
2022-11-24T11:04:53.539Z,6.07
2022-11-24T11:05:57.739Z,6.04
2022-11-24T11:07:01.926Z,6.02
2022-11-24T11:08:06.194Z,6.03
2022-11-24T11:09:10.344Z,6.04
2022-11-24T11:10:14.479Z,6.06
2022-11-24T11:11:18.706Z,6.09
2022-11-24T11:12:52.886Z,6.12
2022-11-24T11:13:27.086Z,6.13
2022-11-24T11:14:32.172Z,6.15
2022-11-24T11:15:35.985Z,6.16
2022-11-24T11:16:40.119Z,6.18
2022-11-24T11:17:44.435Z,6.20
2022-11-24T11:18:48.604Z,6.22
2022-11-24T11:19:58.516Z,6.23
2022-11-24T11:20:56.922Z,6.24
2022-11-24T11:22:01.219Z,6.25
2022-11-24T11:23:05.324Z,6.24
2022-11-24T11:24:09.553Z,6.23
2022-11-24T11:25:13.711Z,6.23
2022-11-24T11:26:17.888Z,6.23
2022-11-24T11:27:22.069Z,6.25
2022-11-24T11:28:26.393Z,6.25
2022-11-24T11:31:39.537Z,6.28
2022-11-24T11:34:04.987Z,6.29
2022-11-24T11:34:51.520Z,6.30
2022-11-24T11:35:55.742Z,6.30
2022-11-24T11:37:00.000Z,6.30
2022-11-24T11:38:04.225Z,6.30
2022-11-24T11:39:08.527Z,6.31
2022-11-24T11:40:13.723Z,6.31
2022-11-24T11:41:17.372Z,6.32
2022-11-24T11:42:53.769Z,6.32
2022-11-24T11:43:25.690Z,6.31
2022-11-24T11:44:29.886Z,6.30
2022-11-24T11:45:34.321Z,6.30
2022-11-24T11:46:38.446Z,6.30
2022-11-24T11:47:42.565Z,6.30
2022-11-24T11:48:47.081Z,6.30
2022-11-24T11:49:51.015Z,6.29
2022-11-24T11:51:25.226Z,6.28
2022-11-24T11:51:59.322Z,6.28
2022-11-24T11:53:03.646Z,6.28
2022-11-24T11:54:07.699Z,6.29
2022-11-24T11:55:11.892Z,6.30
2022-11-24T11:56:16.041Z,6.29
2022-11-24T11:57:20.218Z,6.29
2022-11-24T11:58:24.385Z,6.29
2022-11-24T11:59:28.549Z,6.30
2022-11-24T12:00:32.846Z,6.30
2022-11-24T12:01:36.964Z,6.31
2022-11-24T12:02:41.426Z,6.32
2022-11-24T12:03:45.495Z,6.33
2022-11-24T12:04:49.675Z,6.33
2022-11-24T12:05:53.940Z,6.32
2022-11-24T12:06:58.032Z,6.33
2022-11-24T12:08:08.004Z,6.33
2022-11-24T12:09:21.747Z,6.34
2022-11-24T12:10:10.550Z,6.34
2022-11-24T12:11:14.785Z,6.33
2022-11-24T12:12:18.920Z,6.34
2022-11-24T12:13:23.104Z,6.34
2022-11-24T12:14:27.384Z,6.35
2022-11-24T12:15:31.508Z,6.35
2022-11-24T12:16:35.772Z,6.37
2022-11-24T12:17:39.970Z,6.39
2022-11-24T12:18:59.535Z,6.38
2022-11-24T12:19:48.271Z,6.37
2022-11-24T12:20:52.549Z,6.36
2022-11-24T12:21:56.740Z,6.36
2022-11-24T12:23:00.816Z,6.37
2022-11-24T12:24:05.020Z,6.38
2022-11-24T12:25:09.202Z,6.38
2022-11-24T12:26:13.386Z,6.37
2022-11-24T12:27:22.554Z,6.38
2022-11-24T12:28:21.818Z,6.38
2022-11-24T12:29:26.032Z,6.40
2022-11-24T12:30:30.223Z,6.41
2022-11-24T12:31:34.450Z,6.43
2022-11-24T12:32:38.674Z,6.46
2022-11-24T12:33:47.563Z,6.47
2022-11-24T12:34:47.022Z,6.48
2022-11-24T12:35:51.156Z,6.48
2022-11-24T12:36:55.316Z,6.50
2022-11-24T12:37:59.672Z,6.51
2022-11-24T12:39:03.744Z,6.52
2022-11-24T12:40:07.867Z,6.53
2022-11-24T12:41:39.694Z,6.55
2022-11-24T12:42:16.336Z,6.55
2022-11-24T12:43:20.618Z,6.54
2022-11-24T12:44:24.743Z,6.52
2022-11-24T12:45:29.015Z,6.48
2022-11-24T12:46:33.258Z,6.47
2022-11-24T12:47:37.294Z,6.46
2022-11-24T12:48:41.491Z,6.45
2022-11-24T12:49:45.684Z,6.45
2022-11-24T12:50:49.972Z,6.46
2022-11-24T12:51:54.122Z,6.47
2022-11-24T12:52:59.092Z,6.48
2022-11-24T12:54:02.558Z,6.50
2022-11-24T12:55:06.714Z,6.51
2022-11-24T12:56:10.863Z,6.51
2022-11-24T12:57:15.014Z,6.51
2022-11-24T12:58:19.195Z,6.50
2022-11-24T12:59:23.378Z,6.49
2022-11-24T13:00:27.546Z,6.50
2022-11-24T13:01:32.046Z,6.49
2022-11-24T13:02:36.168Z,6.49
2022-11-24T13:03:40.207Z,6.50
2022-11-24T13:04:44.367Z,6.51
2022-11-24T13:05:48.546Z,6.52
2022-11-24T13:06:52.813Z,6.54
2022-11-24T13:07:57.075Z,6.54
2022-11-24T13:09:01.238Z,6.51
2022-11-24T13:10:05.414Z,6.48
2022-11-24T13:11:09.581Z,6.47
2022-11-24T13:12:13.777Z,6.48
2022-11-24T13:13:20.933Z,6.50
2022-11-24T13:14:24.141Z,6.50
2022-11-24T13:15:45.081Z,6.52
2022-11-24T13:16:38.691Z,6.54
2022-11-24T13:18:01.105Z,6.56
2022-11-24T13:18:41.611Z,6.58
2022-11-24T13:19:45.803Z,6.60
2022-11-24T13:20:50.039Z,6.62
2022-11-24T13:21:54.164Z,6.64
2022-11-24T13:22:58.319Z,6.66
2022-11-24T13:24:02.497Z,6.68
2022-11-24T13:25:06.685Z,6.70
2022-11-24T13:26:10.954Z,6.72
2022-11-24T13:27:15.172Z,6.73
2022-11-24T13:28:28.355Z,6.75
2022-11-24T13:29:25.305Z,6.76
2022-11-24T13:30:30.688Z,6.77
2022-11-24T13:31:34.121Z,6.77
2022-11-24T13:32:38.114Z,6.77
2022-11-24T13:33:42.342Z,6.78
2022-11-24T13:34:46.603Z,6.79
2022-11-24T13:35:50.769Z,6.80
2022-11-24T13:36:54.890Z,6.80
2022-11-24T13:37:59.155Z,6.81
2022-11-24T13:39:03.276Z,6.82
2022-11-24T13:40:07.528Z,6.82
2022-11-24T13:41:28.245Z,6.83
2022-11-24T13:42:42.491Z,6.83
2022-11-24T13:43:20.167Z,6.83
2022-11-24T13:44:24.447Z,6.83
2022-11-24T13:45:28.690Z,6.83
2022-11-24T13:46:32.868Z,6.83
2022-11-24T13:47:36.987Z,6.84
2022-11-24T13:48:41.136Z,6.83
2022-11-24T13:49:45.241Z,6.82
2022-11-24T13:50:49.389Z,6.82
2022-11-24T13:51:53.512Z,6.82
2022-11-24T13:52:57.554Z,6.82
2022-11-24T13:54:01.764Z,6.81
2022-11-24T13:55:11.265Z,6.81
2022-11-24T13:56:10.093Z,6.81
2022-11-24T13:57:14.405Z,6.81
2022-11-24T13:58:18.581Z,6.81
2022-11-24T13:59:22.813Z,6.81
2022-11-24T14:00:27.011Z,6.82
2022-11-24T14:01:31.378Z,6.82
2022-11-24T14:02:38.491Z,6.82
2022-11-24T14:03:47.571Z,6.82
2022-11-24T14:04:46.166Z,6.83
2022-11-24T14:05:50.096Z,6.83
2022-11-24T14:06:54.322Z,6.83
2022-11-24T14:07:58.506Z,6.83
2022-11-24T14:09:02.596Z,6.84
2022-11-24T14:10:06.793Z,6.84
2022-11-24T14:11:10.943Z,6.84
2022-11-24T14:12:15.145Z,6.83
2022-11-24T14:13:19.425Z,6.83
2022-11-24T14:14:23.589Z,6.83
2022-11-24T14:15:27.784Z,6.83
2022-11-24T14:16:32.122Z,6.84
2022-11-24T14:17:36.194Z,6.84
2022-11-24T14:18:40.384Z,6.84